Time;durP1;ratioP1;P1;durP2;ratioP2;P2;SDS_P1;SDS_P2;PMS_P1;PMS_P2;Temp;Humidity;BMP_temperature;BMP_pressure;BME280_temperature;BME280_humidity;BME280_pressure;Samples;Min_cycle;Max_cycle;Signal;HPM_P1;HPM_P2
2022/08/02 00:00:32;;;;;;;3.03;2.38;;;16.80;99.90;;;;;;5168784;28;20372;-72
2022/08/02 00:03:03;;;;;;;2.33;2.08;;;17.10;99.90;;;;;;5168748;28;20029;-72
2022/08/02 00:05:33;;;;;;;2.72;2.10;;;17.10;99.90;;;;;;5168697;28;20030;-74
2022/08/02 00:08:04;;;;;;;3.50;2.53;;;16.40;99.90;;;;;;5168716;28;20015;-71
2022/08/02 00:10:35;;;;;;;3.83;2.70;;;16.80;99.90;;;;;;5168474;28;20031;-72
2022/08/02 00:13:06;;;;;;;3.35;2.28;;;16.90;99.90;;;;;;5168811;28;20133;-76
2022/08/02 00:15:37;;;;;;;3.20;2.60;;;16.90;99.90;;;;;;5168437;28;20113;-71
2022/08/02 00:18:08;;;;;;;2.88;2.22;;;16.90;99.90;;;;;;5168601;28;20030;-72
2022/08/02 00:20:39;;;;;;;2.53;2.03;;;16.90;99.90;;;;;;5168004;28;20485;-71
2022/08/02 00:23:10;;;;;;;2.80;2.05;;;16.30;99.90;;;;;;5168300;28;20038;-71
2022/08/02 00:25:40;;;;;;;3.10;2.47;;;16.40;99.90;;;;;;5168430;28;20037;-71
2022/08/02 00:28:11;;;;;;;3.35;2.40;;;16.50;99.90;;;;;;5168355;28;20026;-75
2022/08/02 00:30:42;;;;;;;2.42;1.90;;;16.60;99.90;;;;;;5168075;28;20031;-71
2022/08/02 00:33:13;;;;;;;5.30;2.63;;;16.90;99.90;;;;;;5168125;28;20556;-72
2022/08/02 00:35:46;;;;;;;2.60;2.17;;;16.90;99.90;;;;;;5168181;28;20023;-77
2022/08/02 00:38:17;;;;;;;3.67;2.40;;;16.80;99.90;;;;;;5168219;28;20085;-72
2022/08/02 00:40:49;;;;;;;2.65;2.00;;;16.90;99.90;;;;;;5168281;28;20050;-71
2022/08/02 00:43:20;;;;;;;4.10;2.35;;;16.60;99.90;;;;;;5168100;28;20038;-72
2022/08/02 00:45:51;;;;;;;3.75;2.53;;;16.20;99.90;;;;;;5167898;28;20496;-71
2022/08/02 00:48:22;;;;;;;3.03;2.55;;;16.20;99.90;;;;;;5167856;28;20034;-71
2022/08/02 00:50:53;;;;;;;3.13;2.40;;;16.30;99.90;;;;;;5167597;28;20034;-75
2022/08/02 00:53:24;;;;;;;2.83;2.10;;;16.70;99.90;;;;;;5167656;28;20038;-75
2022/08/02 00:55:54;;;;;;;3.05;2.53;;;16.80;99.90;;;;;;5167409;28;20030;-71
2022/08/02 00:58:26;;;;;;;2.65;2.38;;;16.70;99.90;;;;;;5167264;28;20130;-71
2022/08/02 01:00:59;;;;;;;4.03;2.63;;;16.60;99.90;;;;;;5166959;28;20030;-71
2022/08/02 01:03:30;;;;;;;3.20;2.55;;;15.90;99.90;;;;;;5167340;28;20014;-71
2022/08/02 01:06:01;;;;;;;3.17;2.53;;;16.00;99.90;;;;;;5167394;28;20027;-72
2022/08/02 01:08:32;;;;;;;4.28;2.95;;;15.90;99.90;;;;;;5167144;28;20034;-74
2022/08/02 01:11:03;;;;;;;4.15;2.83;;;16.00;99.90;;;;;;5167046;28;20421;-71
2022/08/02 01:13:34;;;;;;;3.60;2.70;;;15.90;99.90;;;;;;5167133;28;20034;-71
2022/08/02 01:16:14;;;;;;;2.92;2.47;;;15.70;99.90;;;;;;5167053;28;20022;-73
2022/08/02 01:18:49;;;;;;;4.15;2.95;;;15.80;99.90;;;;;;5167210;28;20398;-71
2022/08/02 01:21:59;;;;;;;3.50;3.15;;;15.90;99.90;;;;;;5166712;28;20074;-71
2022/08/02 01:24:37;;;;;;;3.53;2.50;;;16.20;99.90;;;;;;5167059;28;20042;-72
2022/08/02 01:27:31;;;;;;;3.17;2.22;;;16.30;99.90;;;;;;5166934;28;20033;-72
2022/08/02 01:30:05;;;;;;;3.08;2.55;;;16.10;99.90;;;;;;5166952;28;20029;-71
2022/08/02 01:32:42;;;;;;;3.40;2.67;;;16.10;99.90;;;;;;5166667;28;20459;-71
2022/08/02 01:35:37;;;;;;;4.18;2.92;;;16.30;99.90;;;;;;5166651;28;20038;-71
2022/08/02 01:38:20;;;;;;;3.08;2.38;;;16.40;99.90;;;;;;5166749;28;20037;-72
2022/08/02 01:40:52;;;;;;;3.35;2.70;;;16.60;99.90;;;;;;5166716;28;20054;-71
2022/08/02 01:43:25;;;;;;;2.97;2.38;;;16.50;99.90;;;;;;5166751;28;20073;-72
2022/08/02 01:45:58;;;;;;;2.88;2.55;;;16.30;99.90;;;;;;5166669;28;20023;-71
2022/08/02 01:48:33;;;;;;;3.67;2.58;;;16.00;99.90;;;;;;5166438;28;20030;-72
2022/08/02 01:51:05;;;;;;;3.63;2.70;;;16.20;99.90;;;;;;5166317;28;20045;-72
2022/08/02 01:53:39;;;;;;;4.15;2.63;;;15.90;99.90;;;;;;5166276;28;20506;-71
2022/08/02 01:56:13;;;;;;;3.15;2.42;;;15.50;99.90;;;;;;5166229;28;20430;-71
2022/08/02 01:58:46;;;;;;;3.05;2.42;;;16.20;99.90;;;;;;5166316;28;20093;-77
2022/08/02 02:01:19;;;;;;;4.32;2.75;;;16.10;99.90;;;;;;5166196;28;20033;-71
2022/08/02 02:03:50;;;;;;;4.05;2.35;;;15.80;99.90;;;;;;5166137;28;20034;-73
2022/08/02 02:06:22;;;;;;;3.67;2.63;;;15.80;99.90;;;;;;5166053;28;20042;-72
2022/08/02 02:08:54;;;;;;;2.80;2.22;;;16.00;99.90;;;;;;5166062;28;20561;-71
2022/08/02 02:11:25;;;;;;;2.95;2.25;;;15.90;99.90;;;;;;5165808;28;20038;-71
2022/08/02 02:13:59;;;;;;;4.35;2.22;;;15.90;99.90;;;;;;5165465;28;20469;-72
2022/08/02 02:16:32;;;;;;;3.60;2.40;;;16.10;99.90;;;;;;5166059;28;20468;-72
2022/08/02 02:19:03;;;;;;;3.47;2.42;;;16.00;99.90;;;;;;5165855;28;20034;-71
2022/08/02 02:21:35;;;;;;;3.08;2.38;;;16.10;99.90;;;;;;5165566;28;20041;-72
2022/08/02 02:24:06;;;;;;;2.33;2.10;;;16.20;99.90;;;;;;5165904;28;20045;-72
2022/08/02 02:26:39;;;;;;;2.80;2.10;;;16.00;99.90;;;;;;5165935;28;20138;-71
2022/08/02 02:29:12;;;;;;;2.90;1.95;;;15.90;99.90;;;;;;5165699;28;20045;-71
2022/08/02 02:31:45;;;;;;;2.78;2.20;;;15.80;99.90;;;;;;5164234;28;20037;-72
2022/08/02 02:34:26;;;;;;;2.63;2.28;;;15.30;99.90;;;;;;5165722;28;20393;-71
2022/08/02 02:37:07;;;;;;;2.92;2.53;;;15.80;99.90;;;;;;5165466;28;20030;-71
2022/08/02 02:39:41;;;;;;;3.10;2.47;;;15.90;99.90;;;;;;5165548;28;20041;-71
2022/08/02 02:42:15;;;;;;;2.58;2.08;;;16.20;99.90;;;;;;5165453;28;20025;-71
2022/08/02 02:44:47;;;;;;;5.10;2.60;;;15.80;99.90;;;;;;5165407;28;20030;-71
2022/08/02 02:47:20;;;;;;;2.47;2.10;;;15.80;99.90;;;;;;5165487;28;20019;-71
2022/08/02 02:49:51;;;;;;;3.00;2.40;;;16.00;99.90;;;;;;5165494;28;20471;-71
2022/08/02 02:52:23;;;;;;;3.08;2.50;;;15.90;99.90;;;;;;5163996;28;20142;-71
2022/08/02 02:54:55;;;;;;;3.28;2.38;;;15.90;99.90;;;;;;5165576;28;20041;-72
2022/08/02 02:57:27;;;;;;;4.95;2.55;;;15.80;99.90;;;;;;5165914;28;20121;-71
2022/08/02 02:59:58;;;;;;;2.95;2.20;;;16.00;99.90;;;;;;5165771;28;20031;-71
2022/08/02 03:02:30;;;;;;;2.42;2.22;;;16.00;99.90;;;;;;5165451;28;20058;-71
2022/08/02 03:05:02;;;;;;;2.80;2.42;;;16.00;99.90;;;;;;5165455;28;20015;-71
2022/08/02 03:07:34;;;;;;;2.90;2.20;;;15.90;99.90;;;;;;5165269;28;20034;-72
2022/08/02 03:10:06;;;;;;;3.42;2.30;;;15.60;99.90;;;;;;5165367;28;20014;-71
2022/08/02 03:12:37;;;;;;;3.13;2.08;;;15.50;99.90;;;;;;5164083;28;20034;-72
2022/08/02 03:15:13;;;;;;;3.67;2.58;;;15.50;99.90;;;;;;5165196;28;20026;-71
2022/08/02 03:17:45;;;;;;;3.40;2.50;;;15.80;99.90;;;;;;5165287;28;20030;-71
2022/08/02 03:20:19;;;;;;;2.53;2.10;;;15.90;99.90;;;;;;5165162;28;20121;-74
2022/08/02 03:22:50;;;;;;;2.47;2.10;;;15.80;99.90;;;;;;5164944;28;20108;-71
2022/08/02 03:25:21;;;;;;;2.63;2.25;;;15.80;99.90;;;;;;5168875;28;20034;-71
2022/08/02 03:27:52;;;;;;;2.63;2.35;;;15.90;99.90;;;;;;5169080;28;20541;-71
2022/08/02 03:30:25;;;;;;;3.28;2.55;;;16.10;99.90;;;;;;5169287;28;20023;-71
2022/08/02 03:32:56;;;;;;;2.92;2.55;;;15.60;99.90;;;;;;5169074;28;20039;-71
2022/08/02 03:35:27;;;;;;;3.70;2.50;;;15.90;99.90;;;;;;5169114;28;20033;-72
2022/08/02 03:37:59;;;;;;;3.25;2.58;;;16.30;99.90;;;;;;5168981;28;20072;-75
2022/08/02 03:40:31;;;;;;;3.45;2.40;;;16.10;99.90;;;;;;5169023;28;20080;-71
2022/08/02 03:43:02;;;;;;;2.90;2.20;;;16.30;99.90;;;;;;5169031;28;20014;-71
2022/08/02 03:45:35;;;;;;;2.58;2.13;;;15.80;99.90;;;;;;5168839;28;20038;-72
2022/08/02 03:48:06;;;;;;;3.97;2.63;;;15.70;99.90;;;;;;5167398;28;20026;-72
2022/08/02 03:50:38;;;;;;;3.08;2.20;;;15.90;99.90;;;;;;5168780;28;20048;-71
2022/08/02 03:53:09;;;;;;;3.35;2.55;;;16.00;99.90;;;;;;5168656;28;20422;-71
2022/08/02 03:55:40;;;;;;;3.63;3.15;;;16.10;99.90;;;;;;5168825;28;20065;-71
2022/08/02 03:58:19;;;;;;;3.38;2.67;;;16.20;99.90;;;;;;5168655;28;20023;-72
2022/08/02 04:00:52;;;;;;;2.83;2.28;;;16.40;99.90;;;;;;5168645;28;20034;-71
2022/08/02 04:03:24;;;;;;;2.80;2.30;;;16.60;99.90;;;;;;5168582;28;20488;-72
2022/08/02 04:05:55;;;;;;;4.10;2.38;;;16.20;99.90;;;;;;5168651;28;20033;-71
2022/08/02 04:08:26;;;;;;;7.88;2.83;;;16.50;99.90;;;;;;5168475;28;20041;-71
2022/08/02 04:13:46;;;;;;;3.30;2.60;;;16.40;99.90;;;;;;5168648;28;20034;-71
2022/08/02 04:16:22;;;;;;;3.60;2.85;;;16.60;99.90;;;;;;5168224;28;20034;-71
2022/08/02 04:18:57;;;;;;;3.22;2.67;;;16.60;99.90;;;;;;5168251;28;20042;-71
2022/08/02 04:21:32;;;;;;;3.03;2.72;;;16.60;99.90;;;;;;5167930;28;20038;-71
2022/08/02 04:24:06;;;;;;;5.13;3.33;;;16.60;99.90;;;;;;5168401;28;20113;-72
2022/08/02 04:26:40;;;;;;;3.20;2.72;;;17.30;99.90;;;;;;5168337;28;20030;-71
2022/08/02 04:29:12;;;;;;;3.55;2.70;;;17.10;99.90;;;;;;5168037;28;20022;-71
2022/08/02 04:31:43;;;;;;;4.18;2.88;;;17.10;99.90;;;;;;5166826;28;20026;-72
2022/08/02 04:34:14;;;;;;;3.53;2.60;;;17.00;99.90;;;;;;5168047;28;20109;-72
2022/08/02 04:36:46;;;;;;;3.05;2.50;;;17.20;99.90;;;;;;5165786;28;20419;-72
2022/08/02 04:39:18;;;;;;;3.13;2.33;;;17.30;99.90;;;;;;5167689;28;20030;-72
2022/08/02 04:41:49;;;;;;;3.65;2.70;;;17.50;99.90;;;;;;5167644;28;20041;-73
2022/08/02 04:44:20;;;;;;;3.42;2.58;;;17.60;99.90;;;;;;5167753;28;20026;-72
2022/08/02 04:46:51;;;;;;;3.22;2.15;;;17.90;99.90;;;;;;5167674;28;20025;-72
2022/08/02 04:49:22;;;;;;;3.00;2.28;;;18.20;99.90;;;;;;5167835;28;20027;-72
2022/08/02 04:51:53;;;;;;;3.47;2.40;;;18.30;99.90;;;;;;5167467;28;20050;-72
2022/08/02 04:54:24;;;;;;;2.65;2.42;;;18.30;99.90;;;;;;5166264;28;20482;-77
2022/08/02 04:56:55;;;;;;;2.80;2.35;;;18.40;99.90;;;;;;5167517;28;20031;-72
2022/08/02 04:59:26;;;;;;;2.53;2.33;;;18.70;99.90;;;;;;5167605;28;20045;-72
2022/08/02 05:01:57;;;;;;;3.85;2.20;;;18.90;99.90;;;;;;5167515;28;20498;-72
2022/08/02 05:04:27;;;;;;;3.05;2.35;;;19.00;99.90;;;;;;5167448;28;20053;-72
2022/08/02 05:06:58;;;;;;;2.28;1.92;;;19.00;99.90;;;;;;5167366;28;20026;-72
2022/08/02 05:09:29;;;;;;;2.50;2.30;;;18.70;99.90;;;;;;5166264;28;20033;-72
2022/08/02 05:12:00;;;;;;;2.83;2.30;;;19.00;99.90;;;;;;5166008;28;20122;-72
2022/08/02 05:14:31;;;;;;;2.67;2.17;;;19.00;99.90;;;;;;5167290;28;20375;-76
2022/08/02 05:17:02;;;;;;;3.65;2.20;;;18.90;99.90;;;;;;5167297;28;20097;-72
2022/08/02 05:19:32;;;;;;;3.17;2.58;;;18.80;99.90;;;;;;5165834;28;20599;-72
2022/08/02 05:22:03;;;;;;;3.38;2.33;;;18.90;99.90;;;;;;5166876;28;20063;-72
2022/08/02 05:24:34;;;;;;;4.10;2.15;;;19.60;99.90;;;;;;5167153;28;20065;-72
2022/08/02 05:27:08;;;;;;;2.88;2.35;;;19.60;99.90;;;;;;5167120;28;20034;-72
2022/08/02 05:29:39;;;;;;;3.63;2.70;;;19.90;99.90;;;;;;5166908;28;20034;-74
2022/08/02 05:32:09;;;;;;;3.60;2.30;;;20.00;99.90;;;;;;5166873;28;20033;-73
2022/08/02 05:34:40;;;;;;;2.72;2.17;;;20.40;99.90;;;;;;5166805;28;20100;-73
2022/08/02 05:37:11;;;;;;;3.03;2.22;;;20.80;99.90;;;;;;5167151;28;20084;-73
2022/08/02 05:39:42;;;;;;;2.72;2.42;;;21.00;99.90;;;;;;5166829;28;20030;-73
2022/08/02 05:42:13;;;;;;;3.10;2.53;;;21.90;99.90;;;;;;5166848;28;20109;-73
2022/08/02 05:44:44;;;;;;;1.80;1.58;;;22.00;99.90;;;;;;5166876;28;20034;-74
2022/08/02 05:47:15;;;;;;;2.42;2.17;;;22.00;99.90;;;;;;5166748;28;20034;-72
2022/08/02 05:49:45;;;;;;;3.20;1.90;;;22.10;99.90;;;;;;5165571;28;20034;-72
2022/08/02 05:52:18;;;;;;;2.20;2.00;;;22.10;99.90;;;;;;5166452;28;20038;-74
2022/08/02 05:55:04;;;;;;;2.92;1.90;;;21.90;99.90;;;;;;5166453;28;20042;-71
2022/08/02 05:57:43;;;;;;;2.53;2.20;;;21.60;99.90;;;;;;5166465;28;20088;-72
2022/08/02 06:00:15;;;;;;;2.93;2.30;;;21.70;99.90;;;;;;5166533;28;20553;-75
2022/08/02 06:02:45;;;;;;;3.05;2.50;;;22.10;99.90;;;;;;5166378;28;20522;-73
2022/08/02 06:05:19;;;;;;;3.80;2.30;;;22.70;99.90;;;;;;5166228;28;20115;-73
2022/08/02 06:07:53;;;;;;;2.40;1.90;;;22.70;99.90;;;;;;5166440;28;20429;-72
2022/08/02 06:10:27;;;;;;;3.92;2.50;;;22.70;99.90;;;;;;5166296;28;20038;-73
2022/08/02 06:13:10;;;;;;;2.75;2.50;;;23.00;99.90;;;;;;5166109;28;20042;-72
2022/08/02 06:15:41;;;;;;;2.92;2.25;;;23.40;99.90;;;;;;5166128;28;20062;-73
2022/08/02 06:18:15;;;;;;;2.47;2.05;;;23.80;99.90;;;;;;5166009;28;20445;-72
2022/08/02 06:20:49;;;;;;;2.80;2.30;;;24.20;99.90;;;;;;5165693;28;20034;-72
2022/08/02 06:23:22;;;;;;;3.95;2.35;;;23.90;99.90;;;;;;5166046;28;20489;-72
2022/08/02 06:25:55;;;;;;;3.63;2.50;;;24.20;99.90;;;;;;5165943;28;20370;-77
2022/08/02 06:28:26;;;;;;;2.15;1.92;;;24.70;99.90;;;;;;5166085;28;20027;-73
2022/08/02 06:30:58;;;;;;;2.00;1.67;;;25.10;99.90;;;;;;5165747;28;20026;-72
2022/08/02 06:33:29;;;;;;;2.70;2.00;;;25.30;99.90;;;;;;5165643;28;20101;-72
2022/08/02 06:36:08;;;;;;;6.93;2.10;;;25.20;99.90;;;;;;5165908;28;20032;-72
2022/08/02 06:38:40;;;;;;;;;;;25.50;99.90;;;;;;5166126;28;20100;-72
2022/08/02 06:41:15;;;;;;;2.83;1.80;;;25.50;99.90;;;;;;5165747;28;20329;-72
2022/08/02 06:44:02;;;;;;;2.53;2.33;;;25.10;99.90;;;;;;5165568;28;20092;-71
2022/08/02 06:46:34;;;;;;;2.33;2.10;;;25.50;99.90;;;;;;5165767;28;20033;-73
2022/08/02 06:49:05;;;;;;;2.55;1.95;;;25.60;99.90;;;;;;5165640;28;20053;-72
2022/08/02 06:51:36;;;;;;;2.30;2.05;;;25.80;99.90;;;;;;5165286;28;20449;-78
2022/08/02 06:54:07;;;;;;;3.58;2.38;;;25.50;99.90;;;;;;5165442;28;20041;-72
2022/08/02 06:56:37;;;;;;;2.47;1.90;;;25.10;99.90;;;;;;5165574;28;20026;-72
2022/08/02 06:59:08;;;;;;;4.20;2.13;;;25.00;99.90;;;;;;5164964;28;20045;-72
2022/08/02 07:01:39;;;;;;;3.03;2.08;;;25.40;99.90;;;;;;5164183;28;20130;-72
2022/08/02 07:04:10;;;;;;;2.78;2.00;;;25.20;99.90;;;;;;5165381;28;20459;-72
2022/08/02 07:06:41;;;;;;;2.78;1.95;;;25.10;99.90;;;;;;5148542;28;20043;-78
2022/08/02 07:09:12;;;;;;;1.65;1.55;;;25.10;99.90;;;;;;5145273;28;20073;-73
2022/08/02 07:11:43;;;;;;;2.33;1.65;;;25.00;99.90;;;;;;5145115;28;20042;-75
2022/08/02 07:14:15;;;;;;;1.58;1.40;;;25.00;99.90;;;;;;5143730;28;20031;-76
2022/08/02 07:16:46;;;;;;;3.33;1.85;;;25.10;99.90;;;;;;5145226;28;20086;-72
2022/08/02 07:19:16;;;;;;;1.98;1.73;;;25.50;99.90;;;;;;5145149;28;20439;-72
2022/08/02 07:21:47;;;;;;;1.90;1.60;;;25.40;99.90;;;;;;5144823;28;20078;-72
2022/08/02 07:24:18;;;;;;;3.83;1.90;;;25.20;99.90;;;;;;5145155;28;20035;-74
2022/08/02 07:26:49;;;;;;;2.15;1.75;;;25.10;99.90;;;;;;5143648;28;20058;-73
2022/08/02 07:29:20;;;;;;;1.52;1.23;;;25.30;99.90;;;;;;5143938;28;20026;-72
2022/08/02 07:31:51;;;;;;;1.88;1.50;;;25.30;99.90;;;;;;5154637;28;20034;-72
2022/08/02 07:34:22;;;;;;;1.73;1.30;;;26.00;99.90;;;;;;5144911;28;20411;-76
2022/08/02 07:36:52;;;;;;;2.35;1.38;;;26.40;99.90;;;;;;5155242;28;20381;-73
2022/08/02 07:39:24;;;;;;;1.70;1.58;;;26.80;99.90;;;;;;5165164;28;20032;-72
2022/08/02 07:41:54;;;;;;;2.15;1.42;;;25.80;99.90;;;;;;5165005;28;20474;-72
2022/08/02 07:44:25;;;;;;;1.70;1.40;;;25.40;99.90;;;;;;5165188;28;20050;-72
2022/08/02 07:46:56;;;;;;;2.10;1.52;;;25.40;99.90;;;;;;5164888;28;20029;-74
2022/08/02 07:49:28;;;;;;;1.40;1.25;;;25.90;99.90;;;;;;5164826;28;20026;-72
2022/08/02 07:51:58;;;;;;;1.60;1.20;;;26.70;99.90;;;;;;5154892;28;20034;-75
2022/08/02 07:54:29;;;;;;;2.30;1.58;;;26.90;99.90;;;;;;5151007;28;20038;-72
2022/08/02 07:57:00;;;;;;;1.67;1.33;;;27.20;99.90;;;;;;5147716;28;20006;-72
2022/08/02 07:59:31;;;;;;;2.88;1.55;;;26.70;99.90;;;;;;5144823;28;20022;-72
2022/08/02 08:02:02;;;;;;;3.20;1.85;;;26.50;99.90;;;;;;5143496;28;20050;-72
2022/08/02 08:04:33;;;;;;;2.13;1.42;;;26.10;99.90;;;;;;5143441;28;20055;-72
2022/08/02 08:07:05;;;;;;;1.92;1.30;;;26.90;99.90;;;;;;5144921;28;20719;-73
2022/08/02 08:09:40;;;;;;;1.73;1.30;;;27.30;99.90;;;;;;5143638;28;20498;-75
2022/08/02 08:12:12;;;;;;;1.85;1.60;;;26.80;99.90;;;;;;5155599;28;20050;-73
2022/08/02 08:14:43;;;;;;;2.05;1.13;;;27.40;99.90;;;;;;5156596;28;20054;-75
2022/08/02 08:17:14;;;;;;;2.03;1.17;;;26.50;99.90;;;;;;5164531;28;20027;-72
2022/08/02 08:19:45;;;;;;;2.35;1.10;;;26.60;99.90;;;;;;5168774;28;20022;-73
2022/08/02 08:22:16;;;;;;;1.80;1.00;;;27.60;99.90;;;;;;5168341;28;20054;-74
2022/08/02 08:24:48;;;;;;;1.75;1.23;;;27.90;99.90;;;;;;5168328;28;20410;-72
2022/08/02 08:27:21;;;;;;;1.38;0.80;;;27.10;99.90;;;;;;5168243;28;20038;-77
2022/08/02 08:29:52;;;;;;;2.00;1.13;;;27.10;99.90;;;;;;5168288;28;20034;-72
2022/08/02 08:32:22;;;;;;;1.10;0.93;;;27.60;99.90;;;;;;5166507;28;20054;-72
2022/08/02 08:34:53;;;;;;;2.60;1.08;;;27.80;99.90;;;;;;5154444;28;20027;-73
2022/08/02 08:37:24;;;;;;;1.70;1.15;;;26.90;99.90;;;;;;5168080;28;20037;-73
2022/08/02 08:39:55;;;;;;;0.95;0.85;;;27.50;99.90;;;;;;5168148;28;20105;-74
2022/08/02 08:42:26;;;;;;;1.00;0.90;;;27.40;99.90;;;;;;5167897;28;20022;-73
2022/08/02 08:44:58;;;;;;;1.05;0.70;;;27.60;99.90;;;;;;5168003;28;20469;-72
2022/08/02 08:47:40;;;;;;;2.35;1.08;;;27.00;99.90;;;;;;5168179;28;20467;-73
2022/08/02 08:50:26;;;;;;;1.40;0.93;;;27.20;99.90;;;;;;5167768;28;20029;-74
2022/08/02 08:53:02;;;;;;;1.15;0.98;;;27.60;99.90;;;;;;5167262;28;20043;-72
2022/08/02 08:55:35;;;;;;;2.25;1.00;;;27.50;99.90;;;;;;5167093;28;20375;-73
2022/08/02 08:58:06;;;;;;;2.67;1.10;;;27.20;99.90;;;;;;5167566;28;20027;-73
2022/08/02 09:00:37;;;;;;;1.90;1.10;;;28.40;99.90;;;;;;5167553;28;20038;-72
2022/08/02 09:03:08;;;;;;;2.95;1.30;;;28.30;99.90;;;;;;5167618;28;20057;-72
2022/08/02 09:05:40;;;;;;;1.67;1.15;;;28.40;99.90;;;;;;5167618;28;20038;-74
2022/08/02 09:08:12;;;;;;;1.60;1.15;;;27.80;99.90;;;;;;5167483;28;20015;-73
2022/08/02 09:10:46;;;;;;;1.40;1.10;;;27.20;99.90;;;;;;5167518;28;20026;-75
2022/08/02 09:13:21;;;;;;;1.15;1.05;;;26.90;99.90;;;;;;5167644;28;20073;-73
2022/08/02 09:15:55;;;;;;;2.08;1.10;;;27.80;99.90;;;;;;5167418;28;20101;-73
2022/08/02 09:18:33;;;;;;;14.77;1.35;;;27.90;99.90;;;;;;5167235;28;20088;-73
2022/08/02 09:21:08;;;;;;;1.50;1.10;;;28.30;99.90;;;;;;5166910;28;20127;-72
2022/08/02 09:23:44;;;;;;;1.65;0.90;;;27.60;99.90;;;;;;5167235;28;20039;-74
2022/08/02 09:26:17;;;;;;;1.30;1.00;;;27.80;99.90;;;;;;5167212;28;20033;-76
2022/08/02 09:28:51;;;;;;;2.35;1.50;;;28.10;99.90;;;;;;5167085;28;20068;-75
2022/08/02 09:31:23;;;;;;;1.00;0.90;;;28.20;99.90;;;;;;5166971;28;20034;-74
2022/08/02 09:33:56;;;;;;;1.23;1.13;;;27.80;99.90;;;;;;5165780;28;20504;-73
2022/08/02 09:36:43;;;;;;;1.30;1.00;;;28.70;99.90;;;;;;5167038;28;20019;-73
2022/08/02 09:39:16;;;;;;;1.33;1.05;;;28.40;99.90;;;;;;5166848;28;20545;-72
2022/08/02 09:41:47;;;;;;;1.50;1.40;;;28.70;99.90;;;;;;5166690;28;20466;-73
2022/08/02 09:44:17;;;;;;;1.63;1.02;;;28.80;99.90;;;;;;5166774;28;20057;-72
2022/08/02 09:46:48;;;;;;;1.30;1.10;;;28.90;99.90;;;;;;5166750;28;20364;-77
2022/08/02 09:49:19;;;;;;;1.48;1.17;;;28.50;99.90;;;;;;5166680;28;20037;-77
2022/08/02 09:51:53;;;;;;;1.35;0.90;;;28.90;99.90;;;;;;5166295;28;20038;-73
2022/08/02 09:54:27;;;;;;;1.15;0.95;;;28.70;99.90;;;;;;5166639;28;20505;-72
2022/08/02 09:57:00;;;;;;;2.10;1.30;;;28.10;99.90;;;;;;5166516;28;20050;-73
2022/08/02 09:59:31;;;;;;;1.42;1.20;;;28.30;99.90;;;;;;5166585;28;20030;-72
2022/08/02 10:02:10;;;;;;;1.20;1.08;;;28.30;99.90;;;;;;5166483;28;20041;-72
2022/08/02 10:04:42;;;;;;;1.83;1.08;;;28.50;99.90;;;;;;5166501;28;20057;-73
2022/08/02 10:07:13;;;;;;;1.30;1.00;;;28.80;99.90;;;;;;5166232;28;20034;-73
2022/08/02 10:09:45;;;;;;;0.75;0.70;;;28.80;99.90;;;;;;5166214;28;20027;-72
2022/08/02 10:12:16;;;;;;;1.73;1.35;;;28.60;99.90;;;;;;5166114;28;20045;-72
2022/08/02 10:14:49;;;;;;;1.48;0.82;;;28.80;99.90;;;;;;5165986;28;20033;-72
2022/08/02 10:17:20;;;;;;;1.60;1.48;;;28.90;99.90;;;;;;5166102;28;20030;-72
2022/08/02 10:19:51;;;;;;;1.10;1.00;;;29.40;99.90;;;;;;5165920;28;20033;-73
2022/08/02 10:22:23;;;;;;;1.33;0.95;;;29.40;99.90;;;;;;5165708;28;20042;-72
2022/08/02 10:58:23;;;;;;;1.30;0.80;;;28.90;99.90;;;;;;5307551;27;20414;-70
2022/08/02 11:00:56;;;;;;;1.15;0.80;;;29.80;99.90;;;;;;5307540;27;20080;-70
2022/08/02 11:03:27;;;;;;;0.60;0.60;;;29.30;99.90;;;;;;5307724;27;20019;-70
2022/08/02 11:06:05;;;;;;;0.57;0.50;;;29.10;99.90;;;;;;5307823;27;20344;-70
2022/08/02 11:08:37;;;;;;;1.45;0.75;;;29.60;99.90;;;;;;5289219;28;20024;-70
2022/08/02 11:11:07;;;;;;;1.20;0.80;;;29.30;99.90;;;;;;5307577;27;20019;-70
2022/08/02 11:14:03;;;;;;;1.85;0.70;;;29.30;99.90;;;;;;5289128;28;20776;-69
2022/08/02 11:17:16;;;;;;;1.23;0.60;;;29.40;99.90;;;;;;5281709;28;20042;-70
2022/08/02 11:20:11;;;;;;;0.75;0.63;;;29.50;99.90;;;;;;5200603;28;20112;-70
2022/08/02 11:22:44;;;;;;;1.10;0.65;;;29.50;99.90;;;;;;5200680;28;20121;-70
2022/08/02 11:25:23;;;;;;;1.83;0.80;;;29.70;99.90;;;;;;5200706;28;20042;-71
2022/08/02 11:27:57;;;;;;;0.90;0.68;;;29.60;99.90;;;;;;5200450;28;20156;-70
2022/08/02 11:30:28;;;;;;;2.03;0.73;;;29.80;99.90;;;;;;5200545;28;20044;-70
2022/08/02 11:33:00;;;;;;;1.48;0.75;;;29.00;99.90;;;;;;5200577;28;20033;-69
2022/08/02 11:35:33;;;;;;;0.65;0.55;;;29.30;99.90;;;;;;5200327;28;20025;-73
2022/08/02 11:38:15;;;;;;;4.78;0.80;;;29.90;99.90;;;;;;5200248;28;20120;-70
2022/08/02 11:40:46;;;;;;;0.85;0.80;;;29.40;99.90;;;;;;5183734;28;20141;-70
2022/08/02 11:43:20;;;;;;;0.95;0.70;;;30.20;99.90;;;;;;5200208;28;20121;-70
2022/08/02 11:45:51;;;;;;;1.67;0.90;;;29.60;99.90;;;;;;5200251;28;20034;-70
2022/08/02 11:48:33;;;;;;;1.05;0.95;;;29.90;99.90;;;;;;5199918;28;20036;-70
2022/08/02 11:51:13;;;;;;;0.73;0.70;;;29.70;99.90;;;;;;5264581;28;20081;-70
2022/08/02 11:53:52;;;;;;;1.70;1.10;;;29.30;99.90;;;;;;5285308;28;20039;-70
2022/08/02 11:56:31;;;;;;;1.13;0.82;;;29.90;99.90;;;;;;5285012;28;20082;-70
2022/08/02 11:59:05;;;;;;;1.20;0.88;;;29.80;99.90;;;;;;5254298;28;20607;-70
2022/08/02 12:01:38;;;;;;;1.00;0.80;;;29.90;99.90;;;;;;5252933;28;20032;-70
2022/08/02 12:04:08;;;;;;;0.60;0.60;;;29.60;99.90;;;;;;5271263;28;20360;-71
2022/08/02 12:06:39;;;;;;;1.35;0.88;;;29.50;99.90;;;;;;5271097;28;20032;-70
2022/08/02 12:09:12;;;;;;;1.73;1.00;;;29.50;99.90;;;;;;5270951;28;20016;-70
2022/08/02 12:11:46;;;;;;;1.58;0.82;;;29.40;99.90;;;;;;5271036;28;20023;-71
2022/08/02 12:14:18;;;;;;;1.58;0.80;;;29.40;99.90;;;;;;5270873;28;20357;-75
2022/08/02 12:19:41;;;;;;;0.70;0.70;;;30.10;99.90;;;;;;5271127;28;20077;-74
2022/08/02 12:22:17;;;;;;;1.80;1.00;;;29.30;99.90;;;;;;5270686;28;20031;-70
2022/08/02 12:24:51;;;;;;;0.95;0.85;;;29.80;99.90;;;;;;5270705;28;20077;-70
2022/08/02 12:27:36;;;;;;;5.05;0.90;;;29.10;99.90;;;;;;5270335;28;20054;-70
2022/08/02 12:30:09;;;;;;;7.90;1.25;;;29.30;99.90;;;;;;5270634;28;20391;-74
2022/08/02 12:32:41;;;;;;;2.33;1.08;;;29.40;99.90;;;;;;5270571;28;20020;-70
2022/08/02 12:35:18;;;;;;;2.42;1.25;;;29.80;99.90;;;;;;5270660;28;20032;-70
2022/08/02 12:37:49;;;;;;;1.08;0.90;;;30.10;99.90;;;;;;5270338;28;20026;-70
2022/08/02 12:40:29;;;;;;;1.02;0.93;;;29.70;99.90;;;;;;5270470;28;20028;-76
2022/08/02 12:43:02;;;;;;;1.30;1.00;;;29.90;99.90;;;;;;5270612;28;20028;-70
2022/08/02 12:45:55;;;;;;;1.20;1.10;;;29.70;99.90;;;;;;5270326;28;20066;-70
2022/08/02 12:48:40;;;;;;;1.83;1.40;;;29.40;99.90;;;;;;5270003;28;20024;-70
2022/08/02 12:51:27;;;;;;;1.52;1.10;;;29.60;99.90;;;;;;5270253;28;20107;-70
2022/08/02 12:54:37;;;;;;;1.80;1.25;;;29.60;99.90;;;;;;5270108;28;20016;-70
2022/08/02 12:57:15;;;;;;;1.92;1.30;;;29.20;99.90;;;;;;5207177;28;20511;-70
2022/08/02 12:59:52;;;;;;;1.90;1.20;;;29.60;99.90;;;;;;5228381;28;20021;-70
2022/08/02 13:02:22;;;;;;;2.03;1.48;;;29.80;99.90;;;;;;5228383;28;20484;-70
2022/08/02 13:04:53;;;;;;;2.28;1.70;;;29.30;99.90;;;;;;5228206;28;20040;-69
2022/08/02 13:07:24;;;;;;;2.35;1.65;;;28.90;99.90;;;;;;5228034;28;20036;-70
2022/08/02 13:09:55;;;;;;;2.35;1.73;;;29.30;99.90;;;;;;5227291;28;20434;-75
2022/08/02 13:12:26;;;;;;;2.00;1.67;;;29.60;99.90;;;;;;5228092;28;20054;-70
2022/08/02 13:14:57;;;;;;;3.60;2.10;;;29.60;99.90;;;;;;5228126;28;20029;-70
2022/08/02 13:17:28;;;;;;;3.92;1.92;;;29.60;99.90;;;;;;5227977;28;20025;-70
2022/08/02 13:19:58;;;;;;;2.25;1.75;;;30.30;99.90;;;;;;5227883;28;20036;-70
2022/08/02 13:22:29;;;;;;;3.80;1.60;;;29.90;99.90;;;;;;5227715;28;20116;-72
2022/08/02 13:25:00;;;;;;;1.75;1.25;;;29.20;99.90;;;;;;5227848;28;20067;-70
2022/08/02 13:27:32;;;;;;;2.10;1.60;;;29.10;99.90;;;;;;5227588;28;20067;-70
2022/08/02 13:30:04;;;;;;;3.58;1.90;;;29.40;99.90;;;;;;5227953;28;20431;-70
2022/08/02 13:32:35;;;;;;;2.28;2.03;;;29.70;99.90;;;;;;5227632;28;20060;-75
2022/08/02 13:35:08;;;;;;;4.10;1.83;;;29.00;99.90;;;;;;5227674;28;20049;-71
2022/08/02 13:37:40;;;;;;;2.22;1.88;;;29.00;99.90;;;;;;5227667;28;20040;-70
2022/08/02 13:40:11;;;;;;;2.85;2.20;;;29.00;99.90;;;;;;5227538;28;20025;-71
2022/08/02 13:42:42;;;;;;;4.72;3.72;;;29.50;99.90;;;;;;5227433;28;20089;-70
2022/08/02 13:45:14;;;;;;;2.22;1.85;;;29.40;99.90;;;;;;5226435;28;20025;-73
2022/08/02 13:47:45;;;;;;;2.85;2.13;;;28.70;99.90;;;;;;5227120;28;20079;-70
2022/08/02 13:50:16;;;;;;;2.15;1.90;;;29.00;99.90;;;;;;5227526;28;20021;-71
2022/08/02 13:52:47;;;;;;;2.10;1.90;;;29.30;99.90;;;;;;5227490;28;20025;-70
2022/08/02 13:55:18;;;;;;;2.50;2.20;;;28.90;99.90;;;;;;5227565;28;20104;-69
2022/08/02 13:57:49;;;;;;;2.50;2.15;;;29.30;99.90;;;;;;5261069;28;20077;-70